createdAt,value
2018-06-02T00:00:20.582Z,1014.03
2018-06-02T00:01:20.309Z,1014.05
2018-06-02T00:02:20.346Z,1014.03
2018-06-02T00:03:20.404Z,1014.06
2018-06-02T00:04:20.367Z,1014.02
2018-06-02T00:05:20.414Z,1014.06
2018-06-02T00:06:20.426Z,1014.01
2018-06-02T00:07:20.850Z,1014.01
2018-06-02T00:08:20.644Z,1013.98
2018-06-02T00:09:20.527Z,1013.98
2018-06-02T00:10:20.560Z,1013.98
2018-06-02T00:11:20.609Z,1014.00
2018-06-02T00:12:20.629Z,1014.01
2018-06-02T00:13:20.667Z,1014.06
2018-06-02T00:14:20.997Z,1014.05
2018-06-02T00:15:20.724Z,1014.07
2018-06-02T00:16:20.762Z,1014.11
2018-06-02T00:17:20.845Z,1014.08
2018-06-02T00:18:20.879Z,1014.10
2018-06-02T00:19:20.859Z,1014.10
2018-06-02T00:20:20.908Z,1014.10
2018-06-02T00:21:21.276Z,1014.09
2018-06-02T00:22:20.958Z,1014.12
2018-06-02T00:23:20.998Z,1014.10
2018-06-02T00:24:21.045Z,1014.13
2018-06-02T00:25:21.058Z,1014.13
2018-06-02T00:26:21.097Z,1014.11
2018-06-02T00:27:21.133Z,1014.14
2018-06-02T00:28:21.507Z,1014.10
2018-06-02T00:29:21.296Z,1014.10
2018-06-02T00:30:21.226Z,1014.10
2018-06-02T00:31:21.262Z,1014.12
2018-06-02T00:32:21.308Z,1014.09
2018-06-02T00:33:21.329Z,1014.08
2018-06-02T00:34:21.459Z,1014.13
2018-06-02T00:35:21.692Z,1014.14
2018-06-02T00:36:21.446Z,1014.12
2018-06-02T00:37:21.472Z,1014.15
2018-06-02T00:38:21.541Z,1014.17
2018-06-02T00:39:21.576Z,1014.14
2018-06-02T00:40:21.608Z,1014.16
2018-06-02T00:41:21.596Z,1014.14
2018-06-02T00:42:21.986Z,1014.13
2018-06-02T00:43:21.683Z,1014.10
2018-06-02T00:44:21.740Z,1014.14
2018-06-02T00:45:21.738Z,1014.16
2018-06-02T00:46:21.862Z,1014.13
2018-06-02T00:47:21.791Z,1014.19
2018-06-02T00:48:21.836Z,1014.17
2018-06-02T00:49:22.225Z,1014.13
2018-06-02T00:50:21.893Z,1014.15
2018-06-02T00:51:21.928Z,1014.15
2018-06-02T00:52:22.007Z,1014.13
2018-06-02T00:53:21.998Z,1014.11
2018-06-02T00:54:22.026Z,1014.15
2018-06-02T00:55:22.109Z,1014.10
2018-06-02T00:56:22.397Z,1014.12
2018-06-02T00:57:22.124Z,1014.11
2018-06-02T00:58:22.202Z,1014.13
2018-06-02T00:59:22.211Z,1014.08
2018-06-02T01:00:22.226Z,1014.10
2018-06-02T01:01:22.314Z,1014.10
2018-06-02T01:02:22.342Z,1014.04
2018-06-02T01:03:22.327Z,1014.02
2018-06-02T01:04:22.358Z,1014.04
2018-06-02T01:05:22.396Z,1014.06
2018-06-02T01:06:22.430Z,1014.03
2018-06-02T01:07:22.469Z,1014.03
2018-06-02T01:08:22.491Z,1014.00
2018-06-02T01:09:22.833Z,1013.99
2018-06-02T01:10:22.611Z,1013.98
2018-06-02T01:11:22.594Z,1013.97
2018-06-02T01:12:22.632Z,1013.98
2018-06-02T01:13:22.711Z,1013.96
2018-06-02T01:14:22.693Z,1013.96
2018-06-02T01:15:23.071Z,1013.93
2018-06-02T01:16:22.821Z,1013.97
2018-06-02T01:17:22.842Z,1013.96
2018-06-02T01:18:22.823Z,1014.01
2018-06-02T01:19:22.853Z,1014.01
2018-06-02T01:20:22.889Z,1014.03
2018-06-02T01:21:23.220Z,1013.97
2018-06-02T01:22:23.007Z,1013.98
2018-06-02T01:23:23.038Z,1013.99
2018-06-02T01:24:23.024Z,1013.97
2018-06-02T01:25:23.052Z,1013.99
2018-06-02T01:26:23.087Z,1013.99
2018-06-02T01:27:23.472Z,1013.96
2018-06-02T01:28:23.153Z,1013.95
2018-06-02T01:29:23.285Z,1013.91
2018-06-02T01:30:23.276Z,1013.89
2018-06-02T01:31:23.302Z,1013.88
2018-06-02T01:32:23.365Z,1013.88
2018-06-02T01:33:23.681Z,1013.90
2018-06-02T01:34:23.353Z,1013.89
2018-06-02T01:35:23.392Z,1013.89
2018-06-02T01:36:23.420Z,1013.88
2018-06-02T01:37:23.453Z,1013.86
2018-06-02T01:38:23.491Z,1013.89
2018-06-02T01:39:23.869Z,1013.86
2018-06-02T01:40:23.617Z,1013.84
2018-06-02T01:41:23.642Z,1013.85
2018-06-02T01:42:23.621Z,1013.86
2018-06-02T01:43:23.703Z,1013.86
2018-06-02T01:44:23.699Z,1013.86
2018-06-02T01:45:24.070Z,1013.90
2018-06-02T01:46:23.754Z,1013.87
2018-06-02T01:47:23.783Z,1013.90
2018-06-02T01:48:23.868Z,1013.92
2018-06-02T01:49:23.873Z,1013.91
2018-06-02T01:50:23.935Z,1013.89
2018-06-02T01:51:24.277Z,1013.92
2018-06-02T01:52:24.008Z,1013.90
2018-06-02T01:53:24.022Z,1013.96
2018-06-02T01:54:24.013Z,1013.90
2018-06-02T01:55:24.046Z,1013.92
2018-06-02T01:56:24.087Z,1013.89
2018-06-02T01:57:24.412Z,1013.92
2018-06-02T01:58:24.147Z,1013.87
2018-06-02T01:59:24.231Z,1013.89
2018-06-02T02:00:24.211Z,1013.87
2018-06-02T02:01:24.247Z,1013.92
2018-06-02T02:02:24.283Z,1013.92
2018-06-02T02:03:24.665Z,1013.90
2018-06-02T02:04:24.346Z,1013.95
2018-06-02T02:05:24.396Z,1013.93
2018-06-02T02:06:24.414Z,1013.95
2018-06-02T02:07:24.443Z,1014.00
2018-06-02T02:08:24.476Z,1013.95
2018-06-02T02:09:24.876Z,1013.95
2018-06-02T02:10:24.547Z,1013.94
2018-06-02T02:11:24.575Z,1013.96
2018-06-02T02:12:24.619Z,1013.97
2018-06-02T02:13:24.645Z,1013.93
2018-06-02T02:14:24.678Z,1013.96
2018-06-02T02:15:25.111Z,1013.94
2018-06-02T02:16:24.748Z,1013.93
2018-06-02T02:17:24.783Z,1013.92
2018-06-02T02:18:24.809Z,1013.94
2018-06-02T02:19:24.843Z,1013.94
2018-06-02T02:20:24.892Z,1013.92
2018-06-02T02:21:25.260Z,1013.85
2018-06-02T02:22:24.999Z,1013.89
2018-06-02T02:23:24.985Z,1013.91
2018-06-02T02:24:25.012Z,1013.89
2018-06-02T02:25:25.093Z,1013.91
2018-06-02T02:26:25.230Z,1013.91
2018-06-02T02:27:25.474Z,1013.89
2018-06-02T02:28:25.198Z,1013.87
2018-06-02T02:29:25.174Z,1013.91
2018-06-02T02:30:25.221Z,1013.94
2018-06-02T02:31:25.299Z,1013.93
2018-06-02T02:32:25.325Z,1013.92
2018-06-02T02:33:25.312Z,1013.92
2018-06-02T02:34:25.707Z,1013.93
2018-06-02T02:35:25.377Z,1013.95
2018-06-02T02:36:25.409Z,1013.95
2018-06-02T02:37:25.493Z,1013.98
2018-06-02T02:38:25.472Z,1013.96
2018-06-02T02:39:25.527Z,1013.99
2018-06-02T02:40:25.546Z,1013.94
2018-06-02T02:41:25.880Z,1013.98
2018-06-02T02:42:25.658Z,1013.98
2018-06-02T02:43:25.647Z,1013.98
2018-06-02T02:44:25.673Z,1014.00
2018-06-02T02:45:25.806Z,1013.99
2018-06-02T02:46:25.794Z,1014.07
2018-06-02T02:47:25.777Z,1014.05
2018-06-02T02:48:25.810Z,1014.09
2018-06-02T02:49:25.837Z,1014.03
2018-06-02T02:50:25.874Z,1014.09
2018-06-02T02:51:25.905Z,1014.07
2018-06-02T02:52:25.942Z,1014.06
2018-06-02T02:53:25.971Z,1014.07
2018-06-02T02:54:26.359Z,1014.03
2018-06-02T02:55:26.037Z,1014.02
2018-06-02T02:56:26.071Z,1014.03
2018-06-02T02:57:26.107Z,1014.04
2018-06-02T02:58:26.138Z,1014.05
2018-06-02T02:59:26.222Z,1014.06
2018-06-02T03:00:26.304Z,1014.03
2018-06-02T03:01:26.591Z,1014.08
2018-06-02T03:02:26.283Z,1014.08
2018-06-02T03:03:26.304Z,1014.09
2018-06-02T03:04:26.345Z,1014.09
2018-06-02T03:05:26.378Z,1014.07
2018-06-02T03:06:26.414Z,1014.06
2018-06-02T03:07:26.464Z,1014.11
2018-06-02T03:08:26.770Z,1014.13
2018-06-02T03:09:26.569Z,1014.12
2018-06-02T03:10:26.543Z,1014.15
2018-06-02T03:11:26.621Z,1014.11
2018-06-02T03:12:26.605Z,1014.14
2018-06-02T03:13:26.642Z,1014.09
2018-06-02T03:14:26.703Z,1014.07
2018-06-02T03:15:27.066Z,1014.09
2018-06-02T03:16:26.837Z,1014.10
2018-06-02T03:17:26.773Z,1014.10
2018-06-02T03:18:26.828Z,1014.07
2018-06-02T03:19:26.839Z,1014.01
2018-06-02T03:20:26.870Z,1014.03
2018-06-02T03:21:26.907Z,1014.03
2018-06-02T03:22:27.288Z,1014.06
2018-06-02T03:23:26.974Z,1014.01
2018-06-02T03:24:27.006Z,1014.02
2018-06-02T03:25:27.043Z,1014.02
2018-06-02T03:26:27.075Z,1014.05
2018-06-02T03:27:27.104Z,1014.04
2018-06-02T03:28:27.147Z,1014.03
2018-06-02T03:29:27.517Z,1014.02
2018-06-02T03:30:27.208Z,1014.03
2018-06-02T03:31:27.238Z,1014.05
2018-06-02T03:32:27.337Z,1013.96
2018-06-02T03:33:27.336Z,1014.01
2018-06-02T03:34:27.346Z,1014.03
2018-06-02T03:35:27.376Z,1013.95
2018-06-02T03:36:27.766Z,1014.02
2018-06-02T03:37:27.471Z,1013.95
2018-06-02T03:38:27.475Z,1013.97
2018-06-02T03:39:27.509Z,1014.04
2018-06-02T03:40:27.597Z,1014.00
2018-06-02T03:41:27.575Z,1013.98
2018-06-02T03:42:27.614Z,1014.03
2018-06-02T03:43:27.940Z,1014.02
2018-06-02T03:44:27.678Z,1014.02
2018-06-02T03:45:27.708Z,1014.04
2018-06-02T03:46:27.744Z,1014.04
2018-06-02T03:47:27.823Z,1014.04
2018-06-02T03:48:27.860Z,1014.02
2018-06-02T03:49:27.847Z,1014.03
2018-06-02T03:50:28.230Z,1014.01
2018-06-02T03:51:27.906Z,1014.00
2018-06-02T03:52:27.941Z,1014.06
2018-06-02T03:53:27.974Z,1014.04
2018-06-02T03:54:28.008Z,1014.07
2018-06-02T03:55:28.127Z,1014.08
2018-06-02T03:56:28.428Z,1014.07
2018-06-02T03:57:28.114Z,1014.10
2018-06-02T03:58:28.142Z,1014.08
2018-06-02T03:59:28.231Z,1014.11
2018-06-02T04:00:28.214Z,1014.12
2018-06-02T04:01:28.244Z,1014.11
2018-06-02T04:02:28.632Z,1014.14
2018-06-02T04:03:28.312Z,1014.18
2018-06-02T04:04:28.408Z,1014.14
2018-06-02T04:05:28.430Z,1014.15
2018-06-02T04:06:28.412Z,1014.15
2018-06-02T04:07:28.454Z,1014.15
2018-06-02T04:08:28.828Z,1014.14
2018-06-02T04:09:28.638Z,1014.13
2018-06-02T04:10:28.689Z,1014.15
2018-06-02T04:11:28.591Z,1014.16
2018-06-02T04:12:28.630Z,1014.16
2018-06-02T04:13:28.698Z,1014.18
2018-06-02T04:14:29.031Z,1014.16
2018-06-02T04:15:28.763Z,1014.19
2018-06-02T04:16:28.748Z,1014.22
2018-06-02T04:17:28.780Z,1014.21
2018-06-02T04:18:28.919Z,1014.18
2018-06-02T04:19:28.952Z,1014.22
2018-06-02T04:20:29.377Z,1014.20
2018-06-02T04:21:28.983Z,1014.19
2018-06-02T04:22:28.961Z,1014.19
2018-06-02T04:23:29.021Z,1014.18
2018-06-02T04:24:29.101Z,1014.20
2018-06-02T04:25:29.167Z,1014.18
2018-06-02T04:26:29.393Z,1014.20
2018-06-02T04:27:29.178Z,1014.21
2018-06-02T04:28:29.149Z,1014.21
2018-06-02T04:29:29.181Z,1014.23
2018-06-02T04:30:29.289Z,1014.27
2018-06-02T04:31:29.248Z,1014.26
2018-06-02T04:32:29.641Z,1014.26
2018-06-02T04:33:29.319Z,1014.25
2018-06-02T04:34:29.373Z,1014.29
2018-06-02T04:35:29.456Z,1014.28
2018-06-02T04:36:29.416Z,1014.29
2018-06-02T04:37:29.510Z,1014.31
2018-06-02T04:38:29.838Z,1014.33
2018-06-02T04:39:29.589Z,1014.28
2018-06-02T04:40:29.691Z,1014.27
2018-06-02T04:41:29.641Z,1014.31
2018-06-02T04:42:29.633Z,1014.27
2018-06-02T04:43:29.722Z,1014.31
2018-06-02T04:44:30.077Z,1014.33
2018-06-02T04:45:29.793Z,1014.27
2018-06-02T04:46:29.863Z,1014.27
2018-06-02T04:47:29.786Z,1014.32
2018-06-02T04:48:29.825Z,1014.29
2018-06-02T04:49:29.857Z,1014.32
2018-06-02T04:50:30.246Z,1014.32
2018-06-02T04:51:29.981Z,1014.29
2018-06-02T04:52:29.954Z,1014.31
2018-06-02T04:53:30.042Z,1014.31
2018-06-02T04:54:30.022Z,1014.34
2018-06-02T04:55:30.057Z,1014.38
2018-06-02T04:56:30.391Z,1014.36
2018-06-02T04:57:30.179Z,1014.37
2018-06-02T04:58:30.216Z,1014.37
2018-06-02T05:00:30.235Z,1014.34
2018-06-02T05:01:30.274Z,1014.39
2018-06-02T05:02:30.654Z,1014.39
2018-06-02T05:03:30.328Z,1014.36
2018-06-02T05:04:30.542Z,1014.38
2018-06-02T05:05:30.485Z,1014.41
2018-06-02T05:06:30.432Z,1014.43
2018-06-02T05:07:30.465Z,1014.44
2018-06-02T05:08:30.503Z,1014.41
2018-06-02T05:09:30.578Z,1014.43
2018-06-02T05:10:30.641Z,1014.39
2018-06-02T05:11:30.644Z,1014.40
2018-06-02T05:12:30.679Z,1014.45
2018-06-02T05:13:30.790Z,1014.47
2018-06-02T05:14:31.045Z,1014.42
2018-06-02T05:15:30.754Z,1014.43
2018-06-02T05:16:30.774Z,1014.46
2018-06-02T05:17:30.853Z,1014.46
2018-06-02T05:18:30.833Z,1014.45
2018-06-02T05:19:30.878Z,1014.51
2018-06-02T05:20:30.967Z,1014.49
2018-06-02T05:21:31.280Z,1014.53
2018-06-02T05:22:30.973Z,1014.54
2018-06-02T05:23:31.002Z,1014.55
2018-06-02T05:24:31.033Z,1014.53
2018-06-02T05:25:31.073Z,1014.58
2018-06-02T05:26:31.095Z,1014.59
2018-06-02T05:27:31.132Z,1014.59
2018-06-02T05:28:31.517Z,1014.64
2018-06-02T05:29:31.201Z,1014.66
2018-06-02T05:30:31.234Z,1014.64
2018-06-02T05:31:31.315Z,1014.63
2018-06-02T05:32:31.297Z,1014.63
2018-06-02T05:33:31.334Z,1014.65
2018-06-02T05:34:31.421Z,1014.64
2018-06-02T05:35:31.746Z,1014.63
2018-06-02T05:36:31.451Z,1014.62
2018-06-02T05:37:31.468Z,1014.60
2018-06-02T05:38:31.500Z,1014.59
2018-06-02T05:39:31.593Z,1014.60
2018-06-02T05:40:31.622Z,1014.59
2018-06-02T05:41:31.597Z,1014.58
2018-06-02T05:42:31.982Z,1014.56
2018-06-02T05:43:31.716Z,1014.57
2018-06-02T05:44:31.697Z,1014.56
2018-06-02T05:45:31.782Z,1014.57
2018-06-02T05:46:31.820Z,1014.62
2018-06-02T05:47:31.801Z,1014.60
2018-06-02T05:48:31.885Z,1014.62
2018-06-02T05:49:32.220Z,1014.62
2018-06-02T05:50:31.957Z,1014.62
2018-06-02T05:51:31.937Z,1014.64
2018-06-02T05:52:31.976Z,1014.64
2018-06-02T05:53:31.999Z,1014.59
2018-06-02T05:54:32.037Z,1014.60
2018-06-02T05:55:32.066Z,1014.61
2018-06-02T05:56:32.501Z,1014.61
2018-06-02T05:57:32.132Z,1014.62
2018-06-02T05:58:32.170Z,1014.67
2018-06-02T05:59:32.203Z,1014.66
2018-06-02T06:00:32.234Z,1014.65
2018-06-02T06:01:32.287Z,1014.66
2018-06-02T06:02:32.308Z,1014.64
2018-06-02T06:03:32.699Z,1014.64
2018-06-02T06:04:32.373Z,1014.65
2018-06-02T06:05:32.404Z,1014.64
2018-06-02T06:06:32.436Z,1014.65
2018-06-02T06:07:32.477Z,1014.63
2018-06-02T06:08:32.551Z,1014.65
2018-06-02T06:09:32.563Z,1014.64
2018-06-02T06:10:32.940Z,1014.63
2018-06-02T06:11:32.676Z,1014.61
2018-06-02T06:12:32.692Z,1014.62
2018-06-02T06:13:32.672Z,1014.61
2018-06-02T06:14:32.708Z,1014.62
2018-06-02T06:15:32.800Z,1014.53
2018-06-02T06:16:32.827Z,1014.53
2018-06-02T06:17:33.167Z,1014.57
2018-06-02T06:18:32.842Z,1014.60
2018-06-02T06:19:32.933Z,1014.60
2018-06-02T06:20:32.907Z,1014.60
2018-06-02T06:21:32.941Z,1014.62
2018-06-02T06:22:32.976Z,1014.59
2018-06-02T06:23:33.010Z,1014.62
2018-06-02T06:24:33.392Z,1014.64
2018-06-02T06:25:33.074Z,1014.63
2018-06-02T06:26:33.113Z,1014.66
2018-06-02T06:27:33.195Z,1014.66
2018-06-02T06:28:33.176Z,1014.67
2018-06-02T06:29:33.209Z,1014.67
2018-06-02T06:30:33.252Z,1014.65
2018-06-02T06:31:33.630Z,1014.67
2018-06-02T06:32:33.310Z,1014.70
2018-06-02T06:33:33.348Z,1014.71
2018-06-02T06:34:33.432Z,1014.71
2018-06-02T06:35:33.412Z,1014.68
2018-06-02T06:36:33.445Z,1014.66
2018-06-02T06:37:33.783Z,1014.66
2018-06-02T06:38:33.525Z,1014.69
2018-06-02T06:39:33.599Z,1014.62
2018-06-02T06:40:33.584Z,1014.63
2018-06-02T06:41:33.667Z,1014.60
2018-06-02T06:42:33.663Z,1014.63
2018-06-02T06:43:34.040Z,1014.60
2018-06-02T06:44:33.852Z,1014.59
2018-06-02T06:45:33.763Z,1014.56
2018-06-02T06:46:34.901Z,1014.49
2018-06-02T06:47:33.836Z,1014.53
2018-06-02T06:48:33.860Z,1014.50
2018-06-02T06:49:34.238Z,1014.52
2018-06-02T06:50:33.947Z,1014.51
2018-06-02T06:51:33.960Z,1014.51
2018-06-02T06:52:33.991Z,1014.51
2018-06-02T06:53:34.033Z,1014.50
2018-06-02T06:54:34.071Z,1014.53
2018-06-02T06:55:34.194Z,1014.52
2018-06-02T06:56:34.127Z,1014.52
2018-06-02T06:57:34.163Z,1014.53
2018-06-02T06:58:34.254Z,1014.54
2018-06-02T06:59:34.278Z,1014.54
2018-06-02T07:00:34.277Z,1014.49
2018-06-02T07:01:34.322Z,1014.53
2018-06-02T07:02:34.346Z,1014.56
2018-06-02T07:03:34.390Z,1014.55
2018-06-02T07:04:34.401Z,1014.55
2018-06-02T07:05:34.444Z,1014.56
2018-06-02T07:06:34.628Z,1014.57
2018-06-02T07:07:34.857Z,1014.55
2018-06-02T07:08:34.539Z,1014.57
2018-06-02T07:09:34.573Z,1014.55
2018-06-02T07:10:34.605Z,1014.58
2018-06-02T07:11:34.639Z,1014.65
2018-06-02T07:12:34.726Z,1014.64
2018-06-02T07:13:35.062Z,1014.63
2018-06-02T07:14:34.743Z,1014.64
2018-06-02T07:15:34.789Z,1014.68
2018-06-02T07:16:34.874Z,1014.65
2018-06-02T07:17:34.858Z,1014.69
2018-06-02T07:18:34.961Z,1014.68
2018-06-02T07:19:35.213Z,1014.67
2018-06-02T07:20:34.949Z,1014.74
2018-06-02T07:21:34.980Z,1014.74
2018-06-02T07:22:35.032Z,1014.71
2018-06-02T07:23:35.163Z,1014.74
2018-06-02T07:24:35.143Z,1014.71
2018-06-02T07:25:35.479Z,1014.71
2018-06-02T07:26:35.169Z,1014.70
2018-06-02T07:27:35.215Z,1014.71
2018-06-02T07:28:35.241Z,1014.70
2018-06-02T07:29:35.265Z,1014.76
2018-06-02T07:30:35.294Z,1014.71
2018-06-02T07:31:35.673Z,1014.72
2018-06-02T07:32:35.364Z,1014.72
2018-06-02T07:33:35.397Z,1014.71
2018-06-02T07:34:35.435Z,1014.73
2018-06-02T07:35:35.460Z,1014.74
2018-06-02T07:36:35.505Z,1014.75
2018-06-02T07:37:35.581Z,1014.68
2018-06-02T07:38:35.565Z,1014.71
2018-06-02T07:39:35.604Z,1014.75
2018-06-02T07:40:35.634Z,1014.75
2018-06-02T07:41:35.675Z,1014.73
2018-06-02T07:42:35.704Z,1014.76
2018-06-02T07:43:36.087Z,1014.77
2018-06-02T07:44:35.785Z,1014.77
2018-06-02T07:45:36.025Z,1014.78
2018-06-02T07:46:35.841Z,1014.78
2018-06-02T07:47:35.874Z,1014.79
2018-06-02T07:48:35.908Z,1014.77
2018-06-02T07:49:36.298Z,1014.79
2018-06-02T07:50:36.063Z,1014.76
2018-06-02T07:51:36.029Z,1014.75
2018-06-02T07:52:36.100Z,1014.76
2018-06-02T07:53:36.085Z,1014.78
2018-06-02T07:54:36.187Z,1014.76
2018-06-02T07:55:36.154Z,1014.76
2018-06-02T07:57:36.600Z,1014.75
2018-06-02T07:58:36.309Z,1014.76
2018-06-02T07:59:36.376Z,1014.77
2018-06-02T08:00:36.339Z,1014.80
2018-06-02T08:01:36.419Z,1014.79
2018-06-02T08:02:36.447Z,1014.80
2018-06-02T08:03:36.429Z,1014.84
2018-06-02T08:04:36.935Z,1014.82
2018-06-02T08:05:36.496Z,1014.86
2018-06-02T08:06:36.533Z,1014.83
2018-06-02T08:07:36.670Z,1014.79
2018-06-02T08:08:36.624Z,1014.82
2018-06-02T08:09:36.636Z,1014.75
2018-06-02T08:10:36.697Z,1014.75
2018-06-02T08:11:37.055Z,1014.74
2018-06-02T08:12:36.788Z,1014.73
2018-06-02T08:13:36.780Z,1014.71
2018-06-02T08:14:36.812Z,1014.77
2018-06-02T08:15:36.897Z,1014.72
2018-06-02T08:16:36.885Z,1014.76
2018-06-02T08:17:36.958Z,1014.75
2018-06-02T08:18:37.300Z,1014.71
2018-06-02T08:19:36.983Z,1014.68
2018-06-02T08:20:37.132Z,1014.68
2018-06-02T08:21:37.060Z,1014.65
2018-06-02T08:22:37.093Z,1014.65
2018-06-02T08:23:37.418Z,1014.68
2018-06-02T08:24:37.210Z,1014.62
2018-06-02T08:25:37.493Z,1014.62
2018-06-02T08:26:37.271Z,1014.63
2018-06-02T08:27:37.261Z,1014.62
2018-06-02T08:28:37.345Z,1014.63
2018-06-02T08:29:37.384Z,1014.59
2018-06-02T08:30:37.363Z,1014.62
2018-06-02T08:31:37.403Z,1014.60
2018-06-02T08:32:37.737Z,1014.64
2018-06-02T08:33:37.494Z,1014.62
2018-06-02T08:34:37.562Z,1014.59
2018-06-02T08:35:37.538Z,1014.59
2018-06-02T08:36:37.600Z,1014.58
2018-06-02T08:37:37.659Z,1014.58
2018-06-02T08:38:37.647Z,1014.56
2018-06-02T08:39:38.033Z,1014.60
2018-06-02T08:40:37.768Z,1014.64
2018-06-02T08:41:37.802Z,1014.67
2018-06-02T08:42:37.857Z,1014.64
2018-06-02T08:43:37.816Z,1014.67
2018-06-02T08:44:37.856Z,1014.65
2018-06-02T08:45:37.953Z,1014.65
2018-06-02T08:46:38.294Z,1014.68
2018-06-02T08:47:38.011Z,1014.67
2018-06-02T08:48:37.993Z,1014.68
2018-06-02T08:49:38.031Z,1014.67
2018-06-02T08:50:38.065Z,1014.66
2018-06-02T08:51:38.106Z,1014.72
2018-06-02T08:52:38.191Z,1014.73
2018-06-02T08:53:38.522Z,1014.74
2018-06-02T08:54:38.240Z,1014.76
2018-06-02T08:55:38.240Z,1014.71
2018-06-02T08:56:38.320Z,1014.74
2018-06-02T08:57:38.367Z,1014.79
2018-06-02T08:58:38.396Z,1014.77
2018-06-02T08:59:38.383Z,1014.76
2018-06-02T09:00:38.774Z,1014.73
2018-06-02T09:01:38.445Z,1014.76
2018-06-02T09:02:38.530Z,1014.77
2018-06-02T09:03:38.530Z,1014.75
2018-06-02T09:04:38.548Z,1014.77
2018-06-02T09:05:38.591Z,1014.75
2018-06-02T09:06:38.776Z,1014.78
2018-06-02T09:07:39.007Z,1014.81
2018-06-02T09:08:38.689Z,1014.77
2018-06-02T09:09:38.775Z,1014.80
2018-06-02T09:10:38.763Z,1014.80
2018-06-02T09:11:38.854Z,1014.80
2018-06-02T09:12:38.833Z,1014.83
2018-06-02T09:13:38.874Z,1014.85
2018-06-02T09:14:39.269Z,1014.85
2018-06-02T09:15:39.043Z,1014.85
2018-06-02T09:16:39.027Z,1014.82
2018-06-02T09:17:39.067Z,1014.79
2018-06-02T09:18:39.040Z,1014.84
2018-06-02T09:19:39.076Z,1014.82
2018-06-02T09:20:39.465Z,1014.88
2018-06-02T09:21:39.168Z,1014.89
2018-06-02T09:22:39.182Z,1014.88
2018-06-02T09:23:39.269Z,1014.93
2018-06-02T09:24:39.255Z,1014.93
2018-06-02T09:25:39.291Z,1014.92
2018-06-02T09:26:39.675Z,1014.92
2018-06-02T09:27:39.367Z,1014.88
2018-06-02T09:28:39.404Z,1014.87
2018-06-02T09:29:39.487Z,1014.92
2018-06-02T09:30:39.520Z,1014.92
2018-06-02T09:31:39.497Z,1014.92
2018-06-02T09:32:39.890Z,1014.93
2018-06-02T09:33:39.623Z,1014.92
2018-06-02T09:34:39.619Z,1014.97
2018-06-02T09:35:39.694Z,1014.99
2018-06-02T09:36:39.681Z,1015.01
2018-06-02T09:37:39.719Z,1014.99
2018-06-02T09:38:40.096Z,1015.01
2018-06-02T09:39:39.831Z,1015.02
2018-06-02T09:40:39.817Z,1015.08
2018-06-02T09:41:39.851Z,1015.06
2018-06-02T09:42:39.894Z,1015.03
2018-06-02T09:43:39.927Z,1015.02
2018-06-02T09:44:40.335Z,1015.01
2018-06-02T09:45:39.996Z,1015.03
2018-06-02T09:46:40.081Z,1015.04
2018-06-02T09:47:40.112Z,1015.01
2018-06-02T09:48:40.150Z,1015.03
2018-06-02T09:49:40.142Z,1015.04
2018-06-02T09:50:40.525Z,1015.06
2018-06-02T09:51:40.211Z,1015.04
2018-06-02T09:52:40.262Z,1015.03
2018-06-02T09:53:40.338Z,1015.03
2018-06-02T09:54:40.336Z,1015.03
2018-06-02T09:55:40.349Z,1015.02
2018-06-02T09:56:40.735Z,1015.08
2018-06-02T09:57:40.438Z,1015.05
2018-06-02T09:58:40.456Z,1015.03
2018-06-02T09:59:40.533Z,1015.05
2018-06-02T10:00:40.527Z,1015.06
2018-06-02T10:01:40.561Z,1015.05
2018-06-02T10:02:40.954Z,1015.07
2018-06-02T10:03:40.653Z,1015.01
2018-06-02T10:04:40.798Z,1015.03
2018-06-02T10:05:40.709Z,1015.03
2018-06-02T10:06:40.742Z,1015.01
2018-06-02T10:07:40.777Z,1015.02
2018-06-02T10:08:41.240Z,1015.08
2018-06-02T10:09:40.847Z,1015.07
2018-06-02T10:10:40.907Z,1015.04
2018-06-02T10:11:40.932Z,1015.05
2018-06-02T10:12:40.952Z,1015.00
2018-06-02T10:13:40.996Z,1015.02
2018-06-02T10:14:41.430Z,1015.04
2018-06-02T10:15:41.113Z,1015.07
2018-06-02T10:16:41.142Z,1015.04
2018-06-02T10:17:41.145Z,1015.05
2018-06-02T10:18:41.528Z,1015.04
2018-06-02T10:19:41.204Z,1015.03
2018-06-02T10:20:41.594Z,1015.04
2018-06-02T10:21:41.343Z,1015.07
2018-06-02T10:22:41.368Z,1015.02
2018-06-02T10:23:41.347Z,1015.02
2018-06-02T10:24:41.385Z,1015.08
2018-06-02T10:25:41.473Z,1015.03
2018-06-02T10:26:41.455Z,1015.05
2018-06-02T10:27:41.508Z,1015.06
2018-06-02T10:28:41.530Z,1015.04
2018-06-02T10:29:41.596Z,1014.98
2018-06-02T10:30:41.651Z,1014.99
2018-06-02T10:31:41.682Z,1014.99
2018-06-02T10:32:42.021Z,1014.98
2018-06-02T10:33:41.758Z,1015.02
2018-06-02T10:34:41.790Z,1015.00
2018-06-02T10:35:41.971Z,1014.96
2018-06-02T10:36:41.811Z,1015.00
2018-06-02T10:37:41.849Z,1014.99
2018-06-02T10:38:41.929Z,1015.00
2018-06-02T10:39:42.273Z,1014.96
2018-06-02T10:40:41.961Z,1014.96
2018-06-02T10:41:42.022Z,1014.97
2018-06-02T10:42:42.028Z,1014.94
2018-06-02T10:43:42.063Z,1014.98
2018-06-02T10:44:42.223Z,1015.00
2018-06-02T10:45:42.140Z,1014.98
2018-06-02T10:46:42.472Z,1014.97
2018-06-02T10:47:42.207Z,1014.95
2018-06-02T10:48:42.347Z,1014.94
2018-06-02T10:49:42.291Z,1014.96
2018-06-02T10:50:42.377Z,1014.95
2018-06-02T10:51:42.423Z,1014.91
2018-06-02T10:52:42.437Z,1014.93
2018-06-02T10:53:42.772Z,1014.93
2018-06-02T10:54:42.459Z,1014.90
2018-06-02T10:55:42.495Z,1014.93
2018-06-02T10:56:43.028Z,1014.92
2018-06-02T10:57:42.565Z,1014.90
2018-06-02T10:58:42.603Z,1014.90
2018-06-02T10:59:42.641Z,1014.94
2018-06-02T11:00:42.721Z,1014.92
2018-06-02T11:01:42.800Z,1014.91
2018-06-02T11:02:42.745Z,1014.90
2018-06-02T11:03:42.783Z,1014.91
2018-06-02T11:04:42.919Z,1014.94
2018-06-02T11:05:42.853Z,1014.91
2018-06-02T11:06:43.237Z,1014.87
2018-06-02T11:07:42.975Z,1014.93
2018-06-02T11:08:43.019Z,1014.95
2018-06-02T11:09:43.047Z,1014.92
2018-06-02T11:10:43.057Z,1014.93
2018-06-02T11:11:43.068Z,1014.92
2018-06-02T11:12:43.109Z,1014.92
2018-06-02T11:13:43.514Z,1014.90
2018-06-02T11:14:43.225Z,1014.91
2018-06-02T11:15:43.211Z,1014.92
2018-06-02T11:16:43.245Z,1014.92
2018-06-02T11:17:43.332Z,1014.89
2018-06-02T11:18:43.317Z,1014.95
2018-06-02T11:19:43.354Z,1014.90
2018-06-02T11:20:43.740Z,1014.88
2018-06-02T11:21:43.432Z,1014.92
2018-06-02T11:22:45.672Z,1014.93
2018-06-02T11:23:43.504Z,1014.94
2018-06-02T11:24:43.583Z,1014.95
2018-06-02T11:25:43.625Z,1014.93
2018-06-02T11:26:43.604Z,1014.93
2018-06-02T11:27:43.991Z,1014.97
2018-06-02T11:28:43.678Z,1014.97
2018-06-02T11:29:43.713Z,1015.00
2018-06-02T11:30:43.852Z,1014.94
2018-06-02T11:31:43.792Z,1014.93
2018-06-02T11:32:43.827Z,1014.90
2018-06-02T11:33:43.861Z,1014.91
2018-06-02T11:34:43.901Z,1014.92
2018-06-02T11:35:43.987Z,1014.92
2018-06-02T11:36:43.971Z,1014.89
2018-06-02T11:37:44.014Z,1014.87
2018-06-02T11:38:44.091Z,1014.92
2018-06-02T11:39:44.131Z,1014.91
2018-06-02T11:40:44.112Z,1014.90
2018-06-02T11:41:44.148Z,1014.97
2018-06-02T11:42:44.190Z,1014.94
2018-06-02T11:43:44.226Z,1014.91
2018-06-02T11:44:44.256Z,1014.92
2018-06-02T11:45:44.393Z,1014.90
2018-06-02T11:46:44.687Z,1014.92
2018-06-02T11:47:44.430Z,1014.89
2018-06-02T11:48:44.403Z,1014.90
2018-06-02T11:49:44.444Z,1014.86
2018-06-02T11:50:44.536Z,1014.87
2018-06-02T11:51:44.508Z,1014.85
2018-06-02T11:52:44.544Z,1014.84
2018-06-02T11:53:44.943Z,1014.81
2018-06-02T11:54:44.619Z,1014.84
2018-06-02T11:55:44.656Z,1014.81
2018-06-02T11:56:44.691Z,1014.79
2018-06-02T11:57:44.782Z,1014.84
2018-06-02T11:58:44.780Z,1014.80
2018-06-02T11:59:44.847Z,1014.76
2018-06-02T12:00:45.188Z,1014.75
2018-06-02T12:01:44.879Z,1014.74
2018-06-02T12:02:44.956Z,1014.73
2018-06-02T12:03:44.950Z,1014.74
2018-06-02T12:04:44.994Z,1014.74
2018-06-02T12:05:45.022Z,1014.69
2018-06-02T12:06:45.417Z,1014.69
2018-06-02T12:07:45.095Z,1014.66